createdAt,value
2022-12-11T00:12:41.485Z,0.31
2022-12-11T00:32:41.491Z,0.24
2022-12-11T00:52:41.511Z,0.10
2022-12-11T01:12:41.572Z,0.19
2022-12-11T01:32:41.569Z,0.26
2022-12-11T01:52:41.591Z,0.30
2022-12-11T02:12:41.515Z,0.43
2022-12-11T02:32:41.536Z,0.53
2022-12-11T02:52:41.568Z,0.40
2022-12-11T03:12:41.585Z,0.45
2022-12-11T03:32:41.610Z,0.29
2022-12-11T03:52:41.666Z,0.12
2022-12-11T04:12:41.610Z,0.00
2022-12-11T04:32:41.636Z,0.09
2022-12-11T04:52:41.655Z,-0.05
2022-12-11T05:12:41.589Z,-0.35
2022-12-11T05:32:41.610Z,-0.42
2022-12-11T05:52:41.693Z,-0.37
2022-12-11T06:12:41.663Z,-0.44
2022-12-11T06:32:41.700Z,-0.57
2022-12-11T06:52:41.719Z,-0.36
2022-12-11T07:12:41.652Z,-0.08
2022-12-11T07:32:41.665Z,0.09
2022-12-11T07:52:41.697Z,0.23
2022-12-11T08:12:41.725Z,0.25
2022-12-11T08:32:41.753Z,0.32
2022-12-11T08:52:41.778Z,0.43
2022-12-11T09:12:41.719Z,0.53
2022-12-11T09:32:41.723Z,0.43
2022-12-11T09:52:41.788Z,0.42
2022-12-11T10:12:41.783Z,0.25
2022-12-11T10:32:41.833Z,0.31
2022-12-11T10:52:41.739Z,0.02
2022-12-11T11:12:41.769Z,0.29
2022-12-11T11:32:41.843Z,0.75
2022-12-11T11:52:41.822Z,0.49
2022-12-11T12:12:41.856Z,0.70
2022-12-11T12:32:41.774Z,0.98
2022-12-11T12:52:41.802Z,0.89
2022-12-11T13:12:41.850Z,0.82
2022-12-11T13:32:41.880Z,0.25
2022-12-11T13:52:41.888Z,0.10
2022-12-11T14:12:41.827Z,0.30
2022-12-11T14:32:41.846Z,0.42
2022-12-11T14:52:41.867Z,0.45
2022-12-11T15:12:41.900Z,-0.09
2022-12-11T15:32:41.924Z,-0.13
2022-12-11T15:52:41.847Z,-0.32
2022-12-11T16:12:41.868Z,-0.64
2022-12-11T16:32:42.046Z,-0.48
2022-12-11T16:52:41.980Z,-0.44
2022-12-11T17:12:41.967Z,-0.18
2022-12-11T17:32:41.982Z,-0.12
2022-12-11T17:52:41.943Z,-0.12
2022-12-11T18:12:41.941Z,-0.23
2022-12-11T18:32:42.056Z,-0.49
2022-12-11T18:52:41.993Z,-0.50
2022-12-11T19:12:42.096Z,-0.58
2022-12-11T19:32:42.051Z,-0.53
2022-12-11T19:52:41.972Z,-0.67
2022-12-11T20:12:42.055Z,-0.83
2022-12-11T20:32:42.021Z,-0.76
2022-12-11T20:52:42.155Z,-0.72
2022-12-11T21:12:42.116Z,-0.87
2022-12-11T21:32:42.135Z,-0.79
2022-12-11T21:52:42.128Z,-0.71
2022-12-11T22:12:42.051Z,-0.69
2022-12-11T22:32:42.105Z,-0.59
2022-12-11T22:52:42.115Z,-0.75
2022-12-11T23:12:42.136Z,-0.72
2022-12-11T23:32:42.187Z,-0.95
2022-12-11T23:52:42.195Z,-0.90
